createdAt,value
2023-04-24T00:01:18.164Z,11.34
2023-04-24T00:03:46.578Z,11.17
2023-04-24T00:06:14.951Z,11.11
2023-04-24T00:08:43.179Z,11.22
2023-04-24T00:11:13.150Z,10.78
2023-04-24T00:13:41.739Z,11.14
2023-04-24T00:16:09.965Z,11.11
2023-04-24T00:18:38.296Z,11.29
2023-04-24T00:21:07.418Z,11.47
2023-04-24T00:23:35.785Z,11.44
2023-04-24T00:26:04.182Z,11.41
2023-04-24T00:28:33.863Z,11.54
2023-04-24T00:31:02.260Z,11.36
2023-04-24T00:33:30.574Z,11.52
2023-04-24T00:35:58.933Z,11.49
2023-04-24T00:38:27.185Z,10.99
2023-04-24T00:40:56.315Z,10.88
2023-04-24T00:43:24.858Z,10.46
2023-04-24T00:45:54.579Z,10.05
2023-04-24T00:48:23.598Z,9.94
2023-04-24T00:50:51.956Z,10.15
2023-04-24T00:53:20.301Z,10.64
2023-04-24T00:55:49.132Z,10.36
2023-04-24T00:58:17.502Z,10.90
2023-04-24T01:00:47.347Z,10.95
2023-04-24T01:03:17.902Z,10.22
2023-04-24T01:05:46.320Z,10.68
2023-04-24T01:08:15.842Z,10.78
2023-04-24T01:10:44.267Z,9.90
2023-04-24T01:13:12.902Z,9.89
2023-04-24T01:15:41.373Z,10.35
2023-04-24T01:18:09.747Z,10.30
2023-04-24T01:20:42.167Z,10.26
2023-04-24T01:23:12.174Z,10.35
2023-04-24T01:25:40.734Z,10.23
2023-04-24T01:28:09.142Z,10.49
2023-04-24T01:30:37.499Z,10.24
2023-04-24T01:33:07.086Z,9.94
2023-04-24T01:35:35.604Z,9.97
2023-04-24T01:38:03.927Z,10.33
2023-04-24T01:40:34.004Z,10.61
2023-04-24T01:43:02.457Z,10.73
2023-04-24T01:45:30.772Z,10.58
2023-04-24T01:47:59.447Z,10.48
2023-04-24T01:50:27.851Z,10.67
2023-04-24T01:52:56.578Z,10.47
2023-04-24T01:55:24.791Z,10.57
2023-04-24T01:57:54.958Z,10.58
2023-04-24T02:00:24.045Z,10.15
2023-04-24T02:02:52.392Z,9.74
2023-04-24T02:05:20.965Z,9.89
2023-04-24T02:07:49.278Z,10.00
2023-04-24T02:10:17.626Z,10.01
2023-04-24T02:12:45.948Z,10.51
2023-04-24T02:15:16.159Z,10.59
2023-04-24T02:17:44.501Z,10.33
2023-04-24T02:20:13.441Z,10.12
2023-04-24T02:22:41.688Z,10.61
2023-04-24T02:25:10.825Z,10.80
2023-04-24T02:27:39.078Z,10.83
2023-04-24T02:30:09.304Z,10.84
2023-04-24T02:32:40.267Z,10.77
2023-04-24T02:35:09.429Z,10.73
2023-04-24T02:37:37.709Z,10.49
2023-04-24T02:40:07.493Z,10.49
2023-04-24T02:42:35.791Z,10.32
2023-04-24T02:45:04.137Z,10.63
2023-04-24T02:47:32.563Z,10.46
2023-04-24T02:50:02.506Z,10.71
2023-04-24T02:52:30.785Z,10.94
2023-04-24T02:54:59.037Z,10.54
2023-04-24T02:57:27.328Z,10.14
2023-04-24T02:59:55.582Z,10.45
2023-04-24T03:02:24.041Z,9.28
2023-04-24T03:04:52.344Z,9.00
2023-04-24T03:07:22.444Z,8.84
2023-04-24T03:09:50.729Z,8.41
2023-04-24T03:12:19.176Z,9.00
2023-04-24T03:14:47.512Z,9.16
2023-04-24T03:17:15.834Z,8.82
2023-04-24T03:19:44.374Z,9.03
2023-04-24T03:22:13.434Z,9.61
2023-04-24T03:24:43.049Z,9.70
2023-04-24T03:27:11.331Z,9.72
2023-04-24T03:29:39.631Z,9.69
2023-04-24T03:32:07.927Z,9.75
2023-04-24T03:34:36.168Z,10.00
2023-04-24T03:37:04.399Z,9.85
2023-04-24T03:39:32.614Z,10.14
2023-04-24T03:42:02.953Z,10.14
2023-04-24T03:44:31.202Z,9.93
2023-04-24T03:47:00.504Z,9.97
2023-04-24T03:49:28.967Z,10.12
2023-04-24T03:51:57.190Z,9.99
2023-04-24T03:54:25.564Z,10.02
2023-04-24T03:56:53.862Z,9.99
2023-04-24T03:59:23.536Z,10.06
2023-04-24T04:01:51.880Z,10.29
2023-04-24T04:04:20.424Z,9.99
2023-04-24T04:06:48.990Z,10.22
2023-04-24T04:09:17.500Z,10.16
2023-04-24T04:11:45.743Z,10.15
2023-04-24T04:14:14.023Z,9.67
2023-04-24T04:16:44.304Z,9.39
2023-04-24T04:19:12.744Z,9.24
2023-04-24T04:21:41.091Z,9.56
2023-04-24T04:24:10.850Z,9.92
2023-04-24T04:26:39.160Z,9.91
2023-04-24T04:29:07.881Z,9.70
2023-04-24T04:31:36.243Z,9.99
2023-04-24T04:34:06.046Z,10.29
2023-04-24T04:36:38.093Z,10.37
2023-04-24T04:39:06.400Z,10.13
2023-04-24T04:41:36.219Z,10.18
2023-04-24T04:44:05.856Z,10.63
2023-04-24T04:46:35.325Z,10.54
2023-04-24T04:49:05.418Z,9.95
2023-04-24T04:51:33.779Z,10.38
2023-04-24T04:54:02.031Z,10.58
2023-04-24T04:56:30.320Z,10.62
2023-04-24T04:58:58.583Z,10.46
2023-04-24T05:01:28.821Z,10.67
2023-04-24T05:03:57.350Z,10.86
2023-04-24T05:06:27.304Z,10.70
2023-04-24T05:08:58.292Z,10.77
2023-04-24T05:11:26.749Z,11.25
2023-04-24T05:13:55.112Z,11.07
2023-04-24T05:16:23.702Z,11.39
2023-04-24T05:18:52.012Z,11.13
2023-04-24T05:21:20.307Z,10.75
2023-04-24T05:23:50.094Z,10.55
2023-04-24T05:26:18.874Z,10.55
2023-04-24T05:28:47.109Z,10.41
2023-04-24T05:31:15.437Z,10.52
2023-04-24T05:33:44.017Z,10.15
2023-04-24T05:36:12.251Z,10.11
2023-04-24T05:38:40.654Z,9.90
2023-04-24T05:41:10.355Z,9.73
2023-04-24T05:43:38.614Z,9.34
2023-04-24T05:46:07.159Z,9.15
2023-04-24T05:48:35.720Z,9.89
2023-04-24T05:51:03.976Z,10.57
2023-04-24T05:53:32.436Z,10.52
2023-04-24T05:56:00.787Z,11.19
2023-04-24T05:58:30.448Z,10.50
2023-04-24T06:00:59.694Z,10.83
2023-04-24T06:03:28.500Z,11.26
2023-04-24T06:05:56.888Z,12.27
2023-04-24T06:08:25.173Z,12.50
2023-04-24T06:10:53.556Z,12.81
2023-04-24T06:13:21.939Z,12.62
2023-04-24T06:15:51.709Z,12.77
2023-04-24T06:18:20.008Z,12.20
2023-04-24T06:20:49.276Z,13.65
2023-04-24T06:23:17.579Z,13.79
2023-04-24T06:25:45.931Z,13.77
2023-04-24T06:28:15.497Z,14.26
2023-04-24T06:30:44.565Z,14.60
2023-04-24T06:35:47.595Z,15.38
2023-04-24T06:38:17.461Z,15.47
2023-04-24T06:40:45.974Z,15.35
2023-04-24T06:43:14.410Z,15.41
2023-04-24T06:45:44.500Z,16.23
2023-04-24T06:48:14.598Z,16.24
2023-04-24T06:50:43.083Z,16.48
2023-04-24T06:53:13.827Z,17.28
2023-04-24T06:55:42.492Z,17.64
2023-04-24T06:58:10.991Z,17.37
2023-04-24T07:00:39.362Z,16.95
2023-04-24T07:03:07.920Z,17.28
2023-04-24T07:05:39.376Z,17.63
2023-04-24T07:08:08.088Z,17.81
2023-04-24T07:10:36.873Z,17.83
2023-04-24T07:13:05.194Z,17.30
2023-04-24T07:15:33.524Z,17.28
2023-04-24T07:18:04.889Z,16.03
2023-04-24T07:20:34.442Z,16.65
2023-04-24T07:23:04.684Z,16.65
2023-04-24T07:25:33.194Z,16.91
2023-04-24T07:28:01.522Z,16.66
2023-04-24T07:30:30.623Z,15.81
2023-04-24T07:32:59.008Z,17.64
2023-04-24T07:35:27.700Z,17.63
2023-04-24T07:37:56.550Z,17.39
2023-04-24T07:40:26.401Z,18.15
2023-04-24T07:42:54.660Z,18.71
2023-04-24T07:45:24.294Z,18.30
2023-04-24T07:47:53.346Z,19.02
2023-04-24T07:50:22.088Z,19.77
2023-04-24T07:52:50.503Z,20.34
2023-04-24T07:55:20.855Z,21.03
2023-04-24T07:57:52.340Z,21.93
2023-04-24T08:00:21.255Z,20.74
2023-04-24T08:02:49.957Z,20.75
2023-04-24T08:05:19.019Z,21.86
2023-04-24T08:07:49.929Z,22.28
2023-04-24T08:10:18.338Z,22.10
2023-04-24T08:12:46.899Z,22.28
2023-04-24T08:15:16.811Z,21.07
2023-04-24T08:17:45.164Z,22.37
2023-04-24T08:20:15.613Z,20.70
2023-04-24T08:22:44.510Z,20.27
2023-04-24T08:25:13.375Z,20.96
2023-04-24T08:27:41.772Z,20.41
2023-04-24T08:30:10.741Z,21.09
2023-04-24T08:32:40.494Z,21.57
2023-04-24T08:35:10.827Z,21.61
2023-04-24T08:37:39.568Z,21.13
2023-04-24T08:40:14.231Z,21.94
2023-04-24T08:42:45.271Z,22.24
2023-04-24T08:45:15.059Z,22.50
2023-04-24T08:47:45.584Z,23.04
2023-04-24T08:50:14.088Z,22.18
2023-04-24T08:52:44.550Z,23.27
2023-04-24T08:55:12.837Z,22.42
2023-04-24T08:57:42.571Z,22.32
2023-04-24T09:00:12.314Z,22.23
2023-04-24T09:02:46.005Z,23.02
2023-04-24T09:05:16.181Z,22.40
2023-04-24T09:07:48.875Z,23.07
2023-04-24T09:10:17.596Z,24.39
2023-04-24T09:12:46.827Z,25.51
2023-04-24T09:15:15.461Z,24.73
2023-04-24T09:17:45.565Z,25.02
2023-04-24T09:20:13.952Z,24.83
2023-04-24T09:22:42.387Z,23.80
2023-04-24T09:25:13.726Z,24.99
2023-04-24T09:27:45.884Z,24.32
2023-04-24T09:30:15.410Z,22.30
2023-04-24T09:32:45.399Z,23.21
2023-04-24T09:35:15.467Z,24.07
2023-04-24T09:37:45.613Z,24.20
2023-04-24T09:40:15.890Z,22.81
2023-04-24T09:42:47.574Z,23.11
2023-04-24T09:45:16.321Z,22.67
2023-04-24T09:47:46.163Z,23.95
2023-04-24T09:50:20.820Z,25.00
2023-04-24T09:52:59.362Z,24.03
2023-04-24T09:55:28.166Z,22.51
2023-04-24T09:57:57.766Z,22.66
2023-04-24T10:00:27.931Z,22.18
2023-04-24T10:03:02.545Z,22.45
2023-04-24T10:05:33.679Z,22.83
2023-04-24T10:08:06.750Z,24.69
2023-04-24T10:10:36.456Z,24.16
2023-04-24T10:13:06.287Z,24.72
2023-04-24T10:15:34.779Z,26.25
2023-04-24T10:18:07.535Z,25.96
2023-04-24T10:20:37.374Z,26.41
2023-04-24T10:23:07.592Z,27.27
2023-04-24T10:25:38.807Z,27.82
2023-04-24T10:28:09.781Z,26.84
2023-04-24T10:30:39.370Z,27.02
2023-04-24T10:33:10.309Z,25.19
2023-04-24T10:35:41.953Z,25.88
2023-04-24T10:38:14.414Z,27.97
2023-04-24T10:40:42.966Z,26.06
2023-04-24T10:43:12.541Z,25.65
2023-04-24T10:45:41.481Z,24.47
2023-04-24T10:48:15.067Z,26.52
2023-04-24T10:50:48.551Z,26.63
2023-04-24T10:53:19.360Z,25.14
2023-04-24T10:55:49.828Z,26.24
2023-04-24T10:58:18.880Z,25.10
2023-04-24T11:00:58.872Z,26.07
2023-04-24T11:03:30.602Z,26.59
2023-04-24T11:06:01.671Z,27.38
2023-04-24T11:08:33.247Z,26.97
2023-04-24T11:11:04.769Z,28.81
2023-04-24T11:14:10.178Z,27.61
2023-04-24T11:16:45.610Z,26.44
2023-04-24T11:19:24.730Z,24.64
2023-04-24T11:22:00.791Z,25.10
2023-04-24T11:24:34.563Z,25.80
2023-04-24T11:27:16.159Z,27.08
2023-04-24T11:29:47.250Z,28.75
2023-04-24T11:32:27.657Z,28.31
2023-04-24T11:34:58.561Z,28.39
2023-04-24T11:37:28.937Z,27.29
2023-04-24T11:40:01.187Z,28.05
2023-04-24T11:42:30.714Z,27.52
2023-04-24T11:44:59.193Z,26.16
2023-04-24T11:47:32.214Z,24.79
2023-04-24T11:50:03.023Z,24.75
2023-04-24T11:52:31.950Z,24.97
2023-04-24T11:55:01.088Z,25.60
2023-04-24T11:57:34.712Z,25.85
2023-04-24T12:00:04.624Z,25.86
2023-04-24T12:02:34.154Z,25.29
2023-04-24T12:05:05.122Z,24.55
2023-04-24T12:07:44.387Z,25.03
2023-04-24T12:10:12.831Z,25.91
2023-04-24T12:12:41.312Z,26.05
2023-04-24T12:15:11.039Z,26.03
2023-04-24T12:17:44.166Z,25.29
2023-04-24T12:20:15.503Z,25.08
2023-04-24T12:22:48.006Z,25.07
2023-04-24T12:25:17.681Z,23.79
2023-04-24T12:27:46.574Z,25.07
2023-04-24T12:30:16.525Z,24.06
2023-04-24T12:32:45.749Z,24.58
2023-04-24T12:35:16.264Z,24.34
2023-04-24T12:37:47.483Z,24.86
2023-04-24T12:40:17.066Z,25.53
2023-04-24T12:42:46.643Z,25.34
2023-04-24T12:45:15.532Z,25.78
2023-04-24T12:47:44.751Z,26.60
2023-04-24T12:50:14.244Z,26.96
2023-04-24T12:52:44.668Z,27.19
2023-04-24T12:55:14.233Z,27.17
2023-04-24T12:57:42.654Z,27.93
2023-04-24T13:00:11.940Z,26.54
2023-04-24T13:02:40.793Z,26.40
2023-04-24T13:05:09.917Z,27.01
2023-04-24T13:07:39.200Z,27.09
2023-04-24T13:10:10.516Z,27.49
2023-04-24T13:12:39.821Z,28.20
2023-04-24T13:15:09.418Z,27.53
2023-04-24T13:17:37.827Z,26.83
2023-04-24T13:20:07.454Z,25.70
2023-04-24T13:22:35.682Z,25.85
2023-04-24T13:25:04.110Z,25.85
2023-04-24T13:27:33.948Z,24.19
2023-04-24T13:30:02.278Z,23.93
2023-04-24T13:32:30.719Z,24.03
2023-04-24T13:34:59.077Z,23.38
2023-04-24T13:37:27.328Z,22.86
2023-04-24T13:39:55.714Z,22.79
2023-04-24T13:42:23.960Z,22.97
2023-04-24T13:44:55.250Z,22.05
2023-04-24T13:47:23.499Z,22.33
2023-04-24T13:49:52.057Z,21.63
2023-04-24T13:52:20.814Z,22.07
2023-04-24T13:55:06.469Z,22.45
2023-04-24T13:57:34.874Z,22.91
2023-04-24T14:00:05.222Z,22.32
2023-04-24T14:02:33.757Z,22.45
2023-04-24T14:05:02.386Z,23.17
2023-04-24T14:07:31.384Z,23.84
2023-04-24T14:09:59.783Z,23.62
2023-04-24T14:12:28.231Z,23.69
2023-04-24T14:14:56.593Z,22.97
2023-04-24T14:17:26.356Z,21.99
2023-04-24T14:19:57.352Z,22.61
2023-04-24T14:22:25.814Z,23.33
2023-04-24T14:24:54.022Z,23.89
2023-04-24T14:27:22.329Z,24.60
2023-04-24T14:29:50.637Z,25.06
2023-04-24T14:32:19.025Z,24.55
2023-04-24T14:34:48.753Z,24.81
2023-04-24T14:37:17.350Z,24.11
2023-04-24T14:39:50.016Z,25.07
2023-04-24T14:42:24.788Z,25.32
2023-04-24T14:44:54.052Z,24.79
2023-04-24T14:47:22.999Z,24.30
2023-04-24T14:49:52.750Z,23.61
2023-04-24T14:52:21.247Z,23.59
2023-04-24T14:54:49.586Z,22.66
2023-04-24T14:57:17.925Z,22.06
2023-04-24T14:59:46.373Z,22.33
2023-04-24T15:02:16.210Z,22.07
2023-04-24T15:04:45.600Z,21.62
2023-04-24T15:07:15.502Z,22.00
2023-04-24T15:09:44.089Z,22.31
2023-04-24T15:12:13.524Z,22.60
2023-04-24T15:14:41.938Z,22.38
2023-04-24T15:17:10.344Z,22.08
2023-04-24T15:19:38.736Z,22.11
2023-04-24T15:22:06.953Z,22.89
2023-04-24T15:24:36.583Z,22.53
2023-04-24T15:27:05.230Z,21.82
2023-04-24T15:29:34.855Z,21.24
2023-04-24T15:32:03.205Z,21.58
2023-04-24T15:34:34.709Z,21.71
2023-04-24T15:37:03.574Z,21.51
2023-04-24T15:39:32.023Z,21.74
2023-04-24T15:42:02.834Z,21.47
2023-04-24T15:44:31.142Z,21.58
2023-04-24T15:47:01.860Z,21.78
2023-04-24T15:49:30.520Z,21.71
2023-04-24T15:51:58.883Z,21.35
2023-04-24T15:54:27.295Z,21.30
2023-04-24T15:56:55.600Z,20.65
2023-04-24T15:59:25.751Z,20.40
2023-04-24T16:01:55.929Z,20.51
2023-04-24T16:04:24.821Z,20.81
2023-04-24T16:06:53.589Z,20.84
2023-04-24T16:09:22.167Z,20.77
2023-04-24T16:11:50.881Z,21.03
2023-04-24T16:14:19.489Z,21.17
2023-04-24T16:16:49.591Z,21.12
2023-04-24T16:19:18.481Z,21.05
2023-04-24T16:21:47.229Z,21.10
2023-04-24T16:24:16.218Z,20.72
2023-04-24T16:26:45.122Z,21.11
2023-04-24T16:29:15.741Z,21.18
2023-04-24T16:31:44.906Z,20.54
2023-04-24T16:34:15.628Z,20.24
2023-04-24T16:36:45.308Z,20.27
2023-04-24T16:39:14.925Z,20.14
2023-04-24T16:41:44.155Z,20.18
2023-04-24T16:44:14.150Z,20.19
2023-04-24T16:46:43.280Z,19.83
2023-04-24T16:49:12.367Z,19.69
2023-04-24T16:51:42.786Z,19.43
2023-04-24T16:54:11.747Z,19.27
2023-04-24T16:56:40.801Z,19.72
2023-04-24T16:59:10.075Z,19.85
2023-04-24T17:01:39.163Z,19.65
2023-04-24T17:04:08.294Z,19.39
2023-04-24T17:06:37.533Z,19.28
2023-04-24T17:09:08.060Z,19.13
2023-04-24T17:11:37.130Z,19.36
2023-04-24T17:14:06.501Z,19.51
2023-04-24T17:16:35.893Z,19.36
2023-04-24T17:19:05.186Z,19.06
2023-04-24T17:21:34.586Z,18.63
2023-04-24T17:24:03.639Z,18.22
2023-04-24T17:26:34.134Z,18.15
2023-04-24T17:29:03.173Z,18.29
2023-04-24T17:31:32.168Z,18.49
2023-04-24T17:34:01.319Z,18.13
2023-04-24T17:36:30.371Z,18.14
2023-04-24T17:38:59.456Z,18.11
2023-04-24T17:41:28.394Z,18.02
2023-04-24T17:43:58.200Z,17.71
2023-04-24T17:46:26.678Z,18.00
2023-04-24T17:48:55.279Z,18.14
2023-04-24T17:51:23.884Z,18.05
2023-04-24T17:53:52.347Z,17.60
2023-04-24T17:56:21.014Z,17.45
2023-04-24T17:58:49.619Z,17.29
2023-04-24T18:01:19.730Z,17.05
2023-04-24T18:03:48.104Z,17.02
2023-04-24T18:06:18.886Z,17.37
2023-04-24T18:08:47.409Z,17.45
2023-04-24T18:11:15.856Z,16.96
2023-04-24T18:13:44.194Z,16.97
2023-04-24T18:16:12.437Z,17.17
2023-04-24T18:18:42.170Z,17.03
2023-04-24T18:21:10.400Z,16.95
2023-04-24T18:23:38.781Z,16.61
2023-04-24T18:26:07.163Z,16.50
2023-04-24T18:28:35.543Z,16.78
2023-04-24T18:31:04.051Z,17.02
2023-04-24T18:33:32.776Z,16.97
2023-04-24T18:36:03.723Z,17.13
2023-04-24T18:38:32.325Z,17.19
2023-04-24T18:41:00.667Z,16.80
2023-04-24T18:43:29.008Z,16.57
2023-04-24T18:45:57.348Z,16.22
2023-04-24T18:48:25.722Z,15.87
2023-04-24T18:50:54.076Z,15.78
2023-04-24T18:53:23.881Z,15.84
2023-04-24T18:55:52.165Z,16.28
2023-04-24T18:58:20.453Z,16.08
2023-04-24T19:00:48.918Z,16.07
2023-04-24T19:03:17.403Z,16.12
2023-04-24T19:05:45.753Z,15.99
2023-04-24T19:08:14.095Z,16.11
2023-04-24T19:10:43.815Z,15.78
2023-04-24T19:13:12.195Z,15.80
2023-04-24T19:15:40.491Z,15.90
2023-04-24T19:18:09.275Z,16.02
2023-04-24T19:20:37.633Z,15.83
2023-04-24T19:23:06.294Z,15.64
2023-04-24T19:25:34.754Z,15.54
2023-04-24T19:28:04.608Z,15.10
2023-04-24T19:30:32.835Z,15.07
2023-04-24T19:33:01.658Z,15.14
2023-04-24T19:35:29.926Z,14.47
2023-04-24T19:37:58.246Z,15.01
2023-04-24T19:40:26.568Z,15.26
2023-04-24T19:42:54.910Z,15.59
2023-04-24T19:45:24.748Z,15.09
2023-04-24T19:47:53.450Z,14.66
2023-04-24T19:50:21.814Z,15.00
2023-04-24T19:52:50.113Z,15.49
2023-04-24T19:55:18.775Z,15.02
2023-04-24T19:57:47.077Z,14.72
2023-04-24T20:00:16.270Z,15.30
2023-04-24T20:02:46.227Z,15.53
2023-04-24T20:05:14.876Z,15.57
2023-04-24T20:07:43.376Z,15.57
2023-04-24T20:10:12.241Z,15.46
2023-04-24T20:12:41.226Z,15.56
2023-04-24T20:15:10.774Z,15.79
2023-04-24T20:17:39.172Z,15.48
2023-04-24T20:20:10.320Z,15.85
2023-04-24T20:22:39.892Z,15.72
2023-04-24T20:25:09.492Z,15.64
2023-04-24T20:27:37.810Z,15.80
2023-04-24T20:30:10.649Z,15.53
2023-04-24T20:32:39.090Z,15.59
2023-04-24T20:35:09.611Z,15.66
2023-04-24T20:37:37.960Z,14.99
2023-04-24T20:40:07.300Z,15.13
2023-04-24T20:42:36.897Z,14.97
2023-04-24T20:45:05.917Z,14.04
2023-04-24T20:47:34.236Z,14.26
2023-04-24T20:50:04.295Z,14.21
2023-04-24T20:52:34.157Z,13.98
2023-04-24T20:55:03.480Z,13.46
2023-04-24T20:57:32.522Z,13.27
2023-04-24T21:00:00.912Z,13.07
2023-04-24T21:02:29.325Z,12.69
2023-04-24T21:04:57.690Z,13.10
2023-04-24T21:07:26.028Z,13.26
2023-04-24T21:09:55.782Z,13.76
2023-04-24T21:12:24.065Z,14.29
2023-04-24T21:14:52.370Z,14.55
2023-04-24T21:17:20.732Z,13.92
2023-04-24T21:19:49.446Z,13.39
2023-04-24T21:22:17.653Z,13.13
2023-04-24T21:24:45.883Z,12.98
2023-04-24T21:27:15.669Z,12.74
2023-04-24T21:29:44.202Z,12.80
2023-04-24T21:32:12.683Z,12.73
2023-04-24T21:34:41.130Z,12.91
2023-04-24T21:37:27.482Z,13.22
2023-04-24T21:39:56.259Z,13.21
2023-04-24T21:42:27.680Z,13.61
2023-04-24T21:44:55.898Z,13.21
2023-04-24T21:47:24.249Z,13.26
2023-04-24T21:49:52.454Z,13.52
2023-04-24T21:52:20.775Z,13.99
2023-04-24T21:54:49.046Z,14.06
2023-04-24T21:57:17.461Z,14.18
2023-04-24T21:59:47.636Z,13.98
2023-04-24T22:02:16.067Z,13.98
2023-04-24T22:04:44.912Z,13.26
2023-04-24T22:07:13.337Z,12.80
2023-04-24T22:09:41.565Z,13.45
2023-04-24T22:12:09.875Z,12.65
2023-04-24T22:14:38.352Z,13.02
2023-04-24T22:17:09.727Z,12.93
2023-04-24T22:19:37.960Z,12.78
2023-04-24T22:22:06.229Z,12.96
2023-04-24T22:24:34.498Z,12.71
2023-04-24T22:27:03.139Z,12.89
2023-04-24T22:29:32.175Z,13.17
2023-04-24T22:32:01.144Z,13.27
2023-04-24T22:34:31.000Z,13.43
2023-04-24T22:36:59.221Z,13.24
2023-04-24T22:39:27.368Z,13.36
2023-04-24T22:41:55.724Z,13.40
2023-04-24T22:44:23.989Z,13.25
2023-04-24T22:46:52.353Z,13.41
2023-04-24T22:49:21.665Z,13.54
2023-04-24T22:51:51.965Z,13.71
2023-04-24T22:54:20.179Z,13.16
2023-04-24T22:56:48.445Z,13.12
2023-04-24T22:59:16.778Z,13.31
2023-04-24T23:01:45.006Z,13.23
2023-04-24T23:04:13.480Z,13.48
2023-04-24T23:06:41.828Z,14.03
2023-04-24T23:09:11.788Z,14.14
2023-04-24T23:11:40.126Z,14.10
2023-04-24T23:14:08.667Z,13.76
2023-04-24T23:16:38.995Z,13.40
2023-04-24T23:19:07.367Z,13.46
2023-04-24T23:21:35.727Z,13.55
2023-04-24T23:24:04.089Z,13.89
2023-04-24T23:26:33.803Z,13.54
2023-04-24T23:29:02.072Z,13.55
2023-04-24T23:31:30.430Z,14.02
2023-04-24T23:34:00.325Z,14.04
2023-04-24T23:36:28.565Z,14.12
2023-04-24T23:38:56.908Z,13.69
2023-04-24T23:41:25.246Z,13.84
2023-04-24T23:43:54.942Z,13.68
2023-04-24T23:46:23.232Z,13.67
2023-04-24T23:48:51.505Z,13.42
2023-04-24T23:51:20.110Z,13.54
2023-04-24T23:53:48.685Z,13.76
2023-04-24T23:56:17.118Z,13.27
2023-04-24T23:58:46.765Z,13.23
